Portada
METAR-TAF:

METAR-TAF

Aeropuertos :

Najran, Arabia Saudita

latitud: 17-37N, longitud: 044-25E, altitud: 1212 m

Observación

El informe se hizo hace 45 minutos, a las 08:00 UTC
Viento 2 kt del sur-sureste
Temperatura 37°C
Humedad 10%
Presión 1011 hPa
Visibilidad 10 km o más
sin nubes por debajo de 1500 m y sin presencia de cumulonimbus.

METAR: OENG 180800Z 15002KT CAVOK 37/01 Q1011 NOSIG

Hora: 11:45 (08:45 UTC)

Pronóstico

El informe se hizo hace 9 horas y 45 minutos, a las 23:00 UTC
Pronóstico válido del 18 a las 00 UTC al 19 a las 06 UTC
Viento 6 kt del oeste-noroeste
Visibilidad: 7000 m
Nubes dispersas a una altura de 3000 ft
Evolucionando progresivamente
del 18 a las 06 UTC al 18 a las 08 UTC
Viento 13 kt del este-noreste
Probabilidad 30% :
Temporalmente
del 18 a las 10 UTC al 18 a las 16 UTC
Escasas nubes a una altura de 2500 ft, Cumulonimbus.

TAF: OENG 172300Z 1800/1906 29006KT 7000 SCT030 BECMG 1806/1808 06013KT PROB30 TEMPO 1810/1816 FEW025CB

Observaciones y pronósticos meteorológicos de más de 4000 aeropuertos (mensajes METAR y TAF).

Los puntos amarillos y rojos representan las estaciones disponibles.

Ponga el ratón en el punto deseado para ver el nombre de la estación.

Haga clic para ver las observaciones y los pronósticos meteorológicos.

Para cambiar el mapa : haga clic en los botones verdes con una cruz de color negro para hacer un zoom, en el botón verde con un guión para alejar o en las flechas verdes para mapas adyacentes.


METAR-TAF: